sensor_id;sensor_type;location;lat;lon;timestamp;temperature;humidity
6690;DHT22;3382;51.576;8.076;2023-03-09T00:00:51;4.00;99.90
6690;DHT22;3382;51.576;8.076;2023-03-09T00:03:17;3.30;99.90
6690;DHT22;3382;51.576;8.076;2023-03-09T00:05:43;3.40;99.90
6690;DHT22;3382;51.576;8.076;2023-03-09T00:08:09;3.50;99.90
6690;DHT22;3382;51.576;8.076;2023-03-09T00:10:39;3.40;99.90
6690;DHT22;3382;51.576;8.076;2023-03-09T00:13:05;3.90;99.90
6690;DHT22;3382;51.576;8.076;2023-03-09T00:15:31;4.10;99.90
6690;DHT22;3382;51.576;8.076;2023-03-09T00:17:56;3.40;99.90
6690;DHT22;3382;51.576;8.076;2023-03-09T00:20:22;3.40;99.90
6690;DHT22;3382;51.576;8.076;2023-03-09T00:22:51;3.40;99.90
6690;DHT22;3382;51.576;8.076;2023-03-09T00:25:18;3.40;99.90
6690;DHT22;3382;51.576;8.076;2023-03-09T00:27:47;4.20;99.90
6690;DHT22;3382;51.576;8.076;2023-03-09T00:30:13;4.10;99.90
6690;DHT22;3382;51.576;8.076;2023-03-09T00:32:39;3.50;99.90
6690;DHT22;3382;51.576;8.076;2023-03-09T00:35:05;4.00;99.90
6690;DHT22;3382;51.576;8.076;2023-03-09T00:37:31;3.50;99.90
6690;DHT22;3382;51.576;8.076;2023-03-09T00:39:57;3.90;99.90
6690;DHT22;3382;51.576;8.076;2023-03-09T00:42:23;4.10;99.90
6690;DHT22;3382;51.576;8.076;2023-03-09T00:44:48;3.70;99.90
6690;DHT22;3382;51.576;8.076;2023-03-09T00:47:16;4.10;99.90
6690;DHT22;3382;51.576;8.076;2023-03-09T00:49:42;3.60;99.90
6690;DHT22;3382;51.576;8.076;2023-03-09T00:52:08;3.60;99.90
6690;DHT22;3382;51.576;8.076;2023-03-09T00:54:33;3.60;99.90
6690;DHT22;3382;51.576;8.076;2023-03-09T00:56:59;3.60;99.90
6690;DHT22;3382;51.576;8.076;2023-03-09T00:59:27;3.50;99.90
6690;DHT22;3382;51.576;8.076;2023-03-09T01:01:53;3.60;99.90
6690;DHT22;3382;51.576;8.076;2023-03-09T01:04:18;3.60;99.90
6690;DHT22;3382;51.576;8.076;2023-03-09T01:06:44;4.10;99.90
6690;DHT22;3382;51.576;8.076;2023-03-09T01:09:10;3.70;99.90
6690;DHT22;3382;51.576;8.076;2023-03-09T01:11:36;4.20;99.90
6690;DHT22;3382;51.576;8.076;2023-03-09T01:14:01;3.90;99.90
6690;DHT22;3382;51.576;8.076;2023-03-09T01:16:27;4.10;99.90
6690;DHT22;3382;51.576;8.076;2023-03-09T01:18:53;3.60;99.90
6690;DHT22;3382;51.576;8.076;2023-03-09T01:21:18;4.20;99.90
6690;DHT22;3382;51.576;8.076;2023-03-09T01:23:44;4.10;99.90
6690;DHT22;3382;51.576;8.076;2023-03-09T01:26:10;3.70;99.90
6690;DHT22;3382;51.576;8.076;2023-03-09T01:28:37;3.80;99.90
6690;DHT22;3382;51.576;8.076;2023-03-09T01:31:12;3.60;99.90
6690;DHT22;3382;51.576;8.076;2023-03-09T01:33:38;3.60;99.90
6690;DHT22;3382;51.576;8.076;2023-03-09T01:36:09;3.60;99.90
6690;DHT22;3382;51.576;8.076;2023-03-09T01:38:36;3.60;99.90
6690;DHT22;3382;51.576;8.076;2023-03-09T01:41:02;3.60;99.90
6690;DHT22;3382;51.576;8.076;2023-03-09T01:43:39;3.60;99.90
6690;DHT22;3382;51.576;8.076;2023-03-09T01:49:30;3.60;99.90
6690;DHT22;3382;51.576;8.076;2023-03-09T01:57:33;3.60;99.90
6690;DHT22;3382;51.576;8.076;2023-03-09T02:00:09;3.60;99.90
6690;DHT22;3382;51.576;8.076;2023-03-09T02:02:39;3.50;99.90
6690;DHT22;3382;51.576;8.076;2023-03-09T02:05:09;4.10;99.90
6690;DHT22;3382;51.576;8.076;2023-03-09T02:07:38;3.60;99.90
6690;DHT22;3382;51.576;8.076;2023-03-09T02:10:25;3.60;99.90
6690;DHT22;3382;51.576;8.076;2023-03-09T02:12:56;3.60;99.90
6690;DHT22;3382;51.576;8.076;2023-03-09T02:15:22;3.60;99.90
6690;DHT22;3382;51.576;8.076;2023-03-09T02:17:49;3.90;99.90
6690;DHT22;3382;51.576;8.076;2023-03-09T02:22:50;3.70;99.90
6690;DHT22;3382;51.576;8.076;2023-03-09T02:27:52;3.70;99.90
6690;DHT22;3382;51.576;8.076;2023-03-09T02:30:19;3.70;99.90
6690;DHT22;3382;51.576;8.076;2023-03-09T02:32:44;3.60;99.90
6690;DHT22;3382;51.576;8.076;2023-03-09T02:35:10;4.20;99.90
6690;DHT22;3382;51.576;8.076;2023-03-09T02:37:38;3.80;99.90
6690;DHT22;3382;51.576;8.076;2023-03-09T02:40:34;4.20;99.90
6690;DHT22;3382;51.576;8.076;2023-03-09T02:43:02;3.70;99.90
6690;DHT22;3382;51.576;8.076;2023-03-09T02:45:29;3.70;99.90
6690;DHT22;3382;51.576;8.076;2023-03-09T02:47:55;3.70;99.90
6690;DHT22;3382;51.576;8.076;2023-03-09T02:50:22;4.20;99.90
6690;DHT22;3382;51.576;8.076;2023-03-09T02:52:48;3.70;99.90
6690;DHT22;3382;51.576;8.076;2023-03-09T02:55:14;3.70;99.90
6690;DHT22;3382;51.576;8.076;2023-03-09T02:57:40;3.80;99.90
6690;DHT22;3382;51.576;8.076;2023-03-09T03:00:07;4.30;99.90
6690;DHT22;3382;51.576;8.076;2023-03-09T03:02:37;3.70;99.90
6690;DHT22;3382;51.576;8.076;2023-03-09T03:05:04;4.30;99.90
6690;DHT22;3382;51.576;8.076;2023-03-09T03:07:29;3.80;99.90
6690;DHT22;3382;51.576;8.076;2023-03-09T03:09:55;3.80;99.90
6690;DHT22;3382;51.576;8.076;2023-03-09T03:12:21;3.70;99.90
6690;DHT22;3382;51.576;8.076;2023-03-09T03:14:47;3.80;99.90
6690;DHT22;3382;51.576;8.076;2023-03-09T03:17:12;4.20;99.90
6690;DHT22;3382;51.576;8.076;2023-03-09T03:19:38;4.30;99.90
6690;DHT22;3382;51.576;8.076;2023-03-09T03:22:04;3.80;99.90
6690;DHT22;3382;51.576;8.076;2023-03-09T03:24:30;3.80;99.90
6690;DHT22;3382;51.576;8.076;2023-03-09T03:26:56;4.30;99.90
6690;DHT22;3382;51.576;8.076;2023-03-09T03:29:22;4.40;99.90
6690;DHT22;3382;51.576;8.076;2023-03-09T03:31:47;3.80;99.90
6690;DHT22;3382;51.576;8.076;2023-03-09T03:34:13;4.50;99.90
6690;DHT22;3382;51.576;8.076;2023-03-09T03:36:39;3.80;99.90
6690;DHT22;3382;51.576;8.076;2023-03-09T03:39:04;3.80;99.90
6690;DHT22;3382;51.576;8.076;2023-03-09T03:41:31;4.40;99.90
6690;DHT22;3382;51.576;8.076;2023-03-09T03:43:57;3.90;99.90
6690;DHT22;3382;51.576;8.076;2023-03-09T03:46:22;4.40;99.90
6690;DHT22;3382;51.576;8.076;2023-03-09T03:48:48;3.90;99.90
6690;DHT22;3382;51.576;8.076;2023-03-09T03:51:14;4.50;99.90
6690;DHT22;3382;51.576;8.076;2023-03-09T03:53:40;3.80;99.90
6690;DHT22;3382;51.576;8.076;2023-03-09T03:56:06;3.80;99.90
6690;DHT22;3382;51.576;8.076;2023-03-09T03:58:32;3.90;99.90
6690;DHT22;3382;51.576;8.076;2023-03-09T04:00:57;4.00;99.90
6690;DHT22;3382;51.576;8.076;2023-03-09T04:03:23;3.80;99.90
6690;DHT22;3382;51.576;8.076;2023-03-09T04:05:49;3.90;99.90
6690;DHT22;3382;51.576;8.076;2023-03-09T04:08:14;4.40;99.90
6690;DHT22;3382;51.576;8.076;2023-03-09T04:10:40;3.80;99.90
6690;DHT22;3382;51.576;8.076;2023-03-09T04:13:06;3.80;99.90
6690;DHT22;3382;51.576;8.076;2023-03-09T04:15:33;3.90;99.90
6690;DHT22;3382;51.576;8.076;2023-03-09T04:17:58;3.90;99.90
6690;DHT22;3382;51.576;8.076;2023-03-09T04:20:24;4.30;99.90
6690;DHT22;3382;51.576;8.076;2023-03-09T04:22:50;3.80;99.90
6690;DHT22;3382;51.576;8.076;2023-03-09T04:25:16;3.80;99.90
6690;DHT22;3382;51.576;8.076;2023-03-09T04:27:42;3.90;99.90
6690;DHT22;3382;51.576;8.076;2023-03-09T04:30:09;3.90;99.90
6690;DHT22;3382;51.576;8.076;2023-03-09T04:32:35;3.90;99.90
6690;DHT22;3382;51.576;8.076;2023-03-09T04:35:00;4.50;99.90
6690;DHT22;3382;51.576;8.076;2023-03-09T04:37:26;3.90;99.90
6690;DHT22;3382;51.576;8.076;2023-03-09T04:39:52;4.40;99.90
6690;DHT22;3382;51.576;8.076;2023-03-09T04:42:17;3.80;99.90
6690;DHT22;3382;51.576;8.076;2023-03-09T04:44:43;3.90;99.90
6690;DHT22;3382;51.576;8.076;2023-03-09T04:47:12;4.00;99.90
6690;DHT22;3382;51.576;8.076;2023-03-09T04:49:39;4.40;99.90
6690;DHT22;3382;51.576;8.076;2023-03-09T04:52:05;3.80;99.90
6690;DHT22;3382;51.576;8.076;2023-03-09T04:54:31;3.90;99.90
6690;DHT22;3382;51.576;8.076;2023-03-09T04:56:56;3.90;99.90
6690;DHT22;3382;51.576;8.076;2023-03-09T04:59:22;4.40;99.90
6690;DHT22;3382;51.576;8.076;2023-03-09T05:01:47;4.40;99.90
6690;DHT22;3382;51.576;8.076;2023-03-09T05:04:13;4.00;99.90
6690;DHT22;3382;51.576;8.076;2023-03-09T05:06:39;3.90;99.90
6690;DHT22;3382;51.576;8.076;2023-03-09T05:09:04;3.90;99.90
6690;DHT22;3382;51.576;8.076;2023-03-09T05:11:31;4.00;99.90
6690;DHT22;3382;51.576;8.076;2023-03-09T05:13:57;4.00;99.90
6690;DHT22;3382;51.576;8.076;2023-03-09T05:16:22;4.50;99.90
6690;DHT22;3382;51.576;8.076;2023-03-09T05:18:49;4.50;99.90
6690;DHT22;3382;51.576;8.076;2023-03-09T05:21:14;3.90;99.90
6690;DHT22;3382;51.576;8.076;2023-03-09T05:23:40;4.00;99.90
6690;DHT22;3382;51.576;8.076;2023-03-09T05:26:06;4.00;99.90
6690;DHT22;3382;51.576;8.076;2023-03-09T05:28:33;4.30;99.90
6690;DHT22;3382;51.576;8.076;2023-03-09T05:30:59;3.90;99.90
6690;DHT22;3382;51.576;8.076;2023-03-09T05:33:25;3.90;99.90
6690;DHT22;3382;51.576;8.076;2023-03-09T05:35:50;4.60;99.90
6690;DHT22;3382;51.576;8.076;2023-03-09T05:38:16;4.00;99.90
6690;DHT22;3382;51.576;8.076;2023-03-09T05:40:42;4.20;99.90
6690;DHT22;3382;51.576;8.076;2023-03-09T05:43:09;4.00;99.90
6690;DHT22;3382;51.576;8.076;2023-03-09T05:45:34;4.10;99.90
6690;DHT22;3382;51.576;8.076;2023-03-09T05:48:00;4.10;99.90
6690;DHT22;3382;51.576;8.076;2023-03-09T05:50:26;4.20;99.90
6690;DHT22;3382;51.576;8.076;2023-03-09T05:52:52;4.20;99.90
6690;DHT22;3382;51.576;8.076;2023-03-09T05:55:17;4.80;99.90
6690;DHT22;3382;51.576;8.076;2023-03-09T05:57:43;4.40;99.90
6690;DHT22;3382;51.576;8.076;2023-03-09T06:00:09;4.30;99.90
6690;DHT22;3382;51.576;8.076;2023-03-09T06:02:37;4.30;99.90
6690;DHT22;3382;51.576;8.076;2023-03-09T06:05:03;4.30;99.90
6690;DHT22;3382;51.576;8.076;2023-03-09T06:07:29;4.40;99.90
6690;DHT22;3382;51.576;8.076;2023-03-09T06:09:55;4.40;99.90
6690;DHT22;3382;51.576;8.076;2023-03-09T06:12:21;5.00;99.90
6690;DHT22;3382;51.576;8.076;2023-03-09T06:14:48;4.50;99.90
6690;DHT22;3382;51.576;8.076;2023-03-09T06:17:15;5.30;99.90
6690;DHT22;3382;51.576;8.076;2023-03-09T06:19:40;5.30;99.90
6690;DHT22;3382;51.576;8.076;2023-03-09T06:22:06;4.80;99.90
6690;DHT22;3382;51.576;8.076;2023-03-09T06:24:31;4.80;99.90
6690;DHT22;3382;51.576;8.076;2023-03-09T06:26:58;4.80;99.90
6690;DHT22;3382;51.576;8.076;2023-03-09T06:29:25;5.00;99.90
6690;DHT22;3382;51.576;8.076;2023-03-09T06:31:51;4.70;99.90
6690;DHT22;3382;51.576;8.076;2023-03-09T06:34:16;4.60;99.90
6690;DHT22;3382;51.576;8.076;2023-03-09T06:36:43;4.50;99.90
6690;DHT22;3382;51.576;8.076;2023-03-09T06:39:08;4.40;99.90
6690;DHT22;3382;51.576;8.076;2023-03-09T06:41:35;4.30;99.90
6690;DHT22;3382;51.576;8.076;2023-03-09T06:44:01;5.00;99.90
6690;DHT22;3382;51.576;8.076;2023-03-09T06:46:27;6.10;99.90
6690;DHT22;3382;51.576;8.076;2023-03-09T06:48:53;5.90;99.90
6690;DHT22;3382;51.576;8.076;2023-03-09T06:51:19;5.70;99.90
6690;DHT22;3382;51.576;8.076;2023-03-09T06:53:45;5.10;99.90
6690;DHT22;3382;51.576;8.076;2023-03-09T06:56:11;4.90;99.90
6690;DHT22;3382;51.576;8.076;2023-03-09T06:58:37;5.20;99.90
6690;DHT22;3382;51.576;8.076;2023-03-09T07:01:11;4.60;99.90
6690;DHT22;3382;51.576;8.076;2023-03-09T07:03:38;5.00;99.90
6690;DHT22;3382;51.576;8.076;2023-03-09T07:06:05;4.40;99.90
6690;DHT22;3382;51.576;8.076;2023-03-09T07:08:31;4.40;99.90
6690;DHT22;3382;51.576;8.076;2023-03-09T07:10:56;4.60;99.90
6690;DHT22;3382;51.576;8.076;2023-03-09T07:13:22;4.80;99.90
6690;DHT22;3382;51.576;8.076;2023-03-09T07:15:48;4.40;99.90
6690;DHT22;3382;51.576;8.076;2023-03-09T07:18:13;4.80;99.90
6690;DHT22;3382;51.576;8.076;2023-03-09T07:20:40;4.30;99.90
6690;DHT22;3382;51.576;8.076;2023-03-09T07:23:07;4.20;99.90
6690;DHT22;3382;51.576;8.076;2023-03-09T07:25:33;4.20;99.90
6690;DHT22;3382;51.576;8.076;2023-03-09T07:28:01;4.20;99.90
6690;DHT22;3382;51.576;8.076;2023-03-09T07:30:27;4.20;99.90
6690;DHT22;3382;51.576;8.076;2023-03-09T07:32:55;4.20;99.90
6690;DHT22;3382;51.576;8.076;2023-03-09T07:35:21;4.30;99.90
6690;DHT22;3382;51.576;8.076;2023-03-09T07:37:46;4.70;99.90
6690;DHT22;3382;51.576;8.076;2023-03-09T07:40:12;4.30;99.90
6690;DHT22;3382;51.576;8.076;2023-03-09T07:42:38;4.30;99.90
6690;DHT22;3382;51.576;8.076;2023-03-09T07:45:05;4.20;99.90
6690;DHT22;3382;51.576;8.076;2023-03-09T07:47:31;4.30;99.90
6690;DHT22;3382;51.576;8.076;2023-03-09T07:49:58;4.90;99.90
6690;DHT22;3382;51.576;8.076;2023-03-09T07:52:24;4.30;99.90
6690;DHT22;3382;51.576;8.076;2023-03-09T07:54:56;4.40;99.90
6690;DHT22;3382;51.576;8.076;2023-03-09T07:57:22;4.80;99.90
6690;DHT22;3382;51.576;8.076;2023-03-09T07:59:52;4.30;99.90
6690;DHT22;3382;51.576;8.076;2023-03-09T08:02:18;4.90;99.90
6690;DHT22;3382;51.576;8.076;2023-03-09T08:04:44;4.90;99.90
6690;DHT22;3382;51.576;8.076;2023-03-09T08:07:09;4.40;99.90
6690;DHT22;3382;51.576;8.076;2023-03-09T08:09:35;4.40;99.90
6690;DHT22;3382;51.576;8.076;2023-03-09T08:12:01;5.10;99.90
6690;DHT22;3382;51.576;8.076;2023-03-09T08:14:26;4.40;99.90
6690;DHT22;3382;51.576;8.076;2023-03-09T08:16:52;4.40;99.90
6690;DHT22;3382;51.576;8.076;2023-03-09T08:19:17;4.90;99.90
6690;DHT22;3382;51.576;8.076;2023-03-09T08:21:45;4.40;99.90
6690;DHT22;3382;51.576;8.076;2023-03-09T08:24:11;4.40;99.90
6690;DHT22;3382;51.576;8.076;2023-03-09T08:26:37;4.50;99.90
6690;DHT22;3382;51.576;8.076;2023-03-09T08:29:03;4.60;99.90
6690;DHT22;3382;51.576;8.076;2023-03-09T08:31:29;4.60;99.90
6690;DHT22;3382;51.576;8.076;2023-03-09T08:33:54;5.20;99.90
6690;DHT22;3382;51.576;8.076;2023-03-09T08:36:20;4.70;99.90
6690;DHT22;3382;51.576;8.076;2023-03-09T08:38:48;4.70;99.90
6690;DHT22;3382;51.576;8.076;2023-03-09T08:41:14;4.70;99.90
6690;DHT22;3382;51.576;8.076;2023-03-09T08:43:40;4.70;99.90
6690;DHT22;3382;51.576;8.076;2023-03-09T08:46:06;5.20;99.90
6690;DHT22;3382;51.576;8.076;2023-03-09T08:48:33;5.00;99.90
6690;DHT22;3382;51.576;8.076;2023-03-09T08:51:03;5.20;99.90
6690;DHT22;3382;51.576;8.076;2023-03-09T08:53:32;4.70;99.90
6690;DHT22;3382;51.576;8.076;2023-03-09T08:55:57;5.30;99.90
6690;DHT22;3382;51.576;8.076;2023-03-09T08:58:23;4.80;99.90
6690;DHT22;3382;51.576;8.076;2023-03-09T09:00:49;5.40;99.90
6690;DHT22;3382;51.576;8.076;2023-03-09T09:03:15;5.50;99.90
6690;DHT22;3382;51.576;8.076;2023-03-09T09:05:41;4.90;99.90
6690;DHT22;3382;51.576;8.076;2023-03-09T09:08:06;4.90;99.90
6690;DHT22;3382;51.576;8.076;2023-03-09T09:10:32;5.40;99.90
6690;DHT22;3382;51.576;8.076;2023-03-09T09:12:59;5.30;99.90
6690;DHT22;3382;51.576;8.076;2023-03-09T09:15:25;4.80;99.90
6690;DHT22;3382;51.576;8.076;2023-03-09T09:17:51;4.90;99.90
6690;DHT22;3382;51.576;8.076;2023-03-09T09:20:18;4.90;99.90
6690;DHT22;3382;51.576;8.076;2023-03-09T09:22:45;4.90;99.90
6690;DHT22;3382;51.576;8.076;2023-03-09T09:25:11;4.80;99.90
6690;DHT22;3382;51.576;8.076;2023-03-09T09:27:36;4.90;99.90
6690;DHT22;3382;51.576;8.076;2023-03-09T09:30:05;5.70;99.90
6690;DHT22;3382;51.576;8.076;2023-03-09T09:32:31;6.90;99.90
6690;DHT22;3382;51.576;8.076;2023-03-09T09:34:57;6.60;99.90
6690;DHT22;3382;51.576;8.076;2023-03-09T09:37:24;6.10;99.90
6690;DHT22;3382;51.576;8.076;2023-03-09T09:39:50;5.90;99.90
6690;DHT22;3382;51.576;8.076;2023-03-09T09:42:35;5.70;99.90
6690;DHT22;3382;51.576;8.076;2023-03-09T09:45:03;5.50;99.90
6690;DHT22;3382;51.576;8.076;2023-03-09T09:47:31;5.40;99.90
6690;DHT22;3382;51.576;8.076;2023-03-09T09:49:59;5.30;99.90
6690;DHT22;3382;51.576;8.076;2023-03-09T09:52:32;5.30;99.90
6690;DHT22;3382;51.576;8.076;2023-03-09T10:00:22;5.30;99.90
6690;DHT22;3382;51.576;8.076;2023-03-09T10:10:48;5.40;99.90
6690;DHT22;3382;51.576;8.076;2023-03-09T10:13:19;5.90;99.90
6690;DHT22;3382;51.576;8.076;2023-03-09T10:15:46;5.60;99.90
6690;DHT22;3382;51.576;8.076;2023-03-09T10:18:15;5.70;99.90
6690;DHT22;3382;51.576;8.076;2023-03-09T10:20:46;5.70;99.90
6690;DHT22;3382;51.576;8.076;2023-03-09T10:23:27;5.70;99.90
6690;DHT22;3382;51.576;8.076;2023-03-09T10:26:01;5.70;99.90
6690;DHT22;3382;51.576;8.076;2023-03-09T10:28:33;5.70;99.90
6690;DHT22;3382;51.576;8.076;2023-03-09T10:33:37;5.70;99.90
6690;DHT22;3382;51.576;8.076;2023-03-09T10:38:52;5.80;99.90
6690;DHT22;3382;51.576;8.076;2023-03-09T10:41:20;6.30;99.90
6690;DHT22;3382;51.576;8.076;2023-03-09T10:43:46;5.90;99.90
6690;DHT22;3382;51.576;8.076;2023-03-09T10:46:23;5.80;99.90
6690;DHT22;3382;51.576;8.076;2023-03-09T10:48:50;5.90;99.90
6690;DHT22;3382;51.576;8.076;2023-03-09T10:51:36;5.90;99.90
6690;DHT22;3382;51.576;8.076;2023-03-09T10:56:44;6.00;99.90
6690;DHT22;3382;51.576;8.076;2023-03-09T10:59:18;6.70;99.90
6690;DHT22;3382;51.576;8.076;2023-03-09T11:01:46;6.00;99.90
6690;DHT22;3382;51.576;8.076;2023-03-09T11:06:54;6.20;99.90
6690;DHT22;3382;51.576;8.076;2023-03-09T11:14:55;6.10;99.90
6690;DHT22;3382;51.576;8.076;2023-03-09T11:17:45;6.10;99.90
6690;DHT22;3382;51.576;8.076;2023-03-09T11:20:41;6.10;99.90
6690;DHT22;3382;51.576;8.076;2023-03-09T11:23:33;6.20;99.90
6690;DHT22;3382;51.576;8.076;2023-03-09T11:26:28;6.10;99.90
6690;DHT22;3382;51.576;8.076;2023-03-09T11:31:42;6.20;99.90
6690;DHT22;3382;51.576;8.076;2023-03-09T11:36:59;6.20;99.90
6690;DHT22;3382;51.576;8.076;2023-03-09T11:39:33;6.30;99.90
6690;DHT22;3382;51.576;8.076;2023-03-09T11:42:05;6.40;99.90
6690;DHT22;3382;51.576;8.076;2023-03-09T11:44:39;6.20;99.90
6690;DHT22;3382;51.576;8.076;2023-03-09T11:47:32;6.80;99.90
6690;DHT22;3382;51.576;8.076;2023-03-09T11:49:59;6.30;99.90
6690;DHT22;3382;51.576;8.076;2023-03-09T11:52:34;6.40;99.90
6690;DHT22;3382;51.576;8.076;2023-03-09T11:55:06;6.40;99.90
6690;DHT22;3382;51.576;8.076;2023-03-09T11:57:34;6.40;99.90
6690;DHT22;3382;51.576;8.076;2023-03-09T12:00:05;6.40;99.90
6690;DHT22;3382;51.576;8.076;2023-03-09T12:02:59;6.40;99.90
6690;DHT22;3382;51.576;8.076;2023-03-09T12:05:34;6.40;99.90
6690;DHT22;3382;51.576;8.076;2023-03-09T12:08:05;6.40;99.90
6690;DHT22;3382;51.576;8.076;2023-03-09T12:10:53;6.40;99.90
6690;DHT22;3382;51.576;8.076;2023-03-09T12:13:48;6.40;99.90
6690;DHT22;3382;51.576;8.076;2023-03-09T12:16:28;6.40;99.90
6690;DHT22;3382;51.576;8.076;2023-03-09T12:19:14;6.40;99.90
6690;DHT22;3382;51.576;8.076;2023-03-09T12:21:44;6.40;99.90
6690;DHT22;3382;51.576;8.076;2023-03-09T12:24:33;6.40;99.90
6690;DHT22;3382;51.576;8.076;2023-03-09T12:27:13;6.40;99.90
6690;DHT22;3382;51.576;8.076;2023-03-09T12:34:53;6.40;99.90
6690;DHT22;3382;51.576;8.076;2023-03-09T12:42:57;6.40;99.90
6690;DHT22;3382;51.576;8.076;2023-03-09T12:56:41;6.40;99.90
6690;DHT22;3382;51.576;8.076;2023-03-09T12:58:38;6.40;99.90
6690;DHT22;3382;51.576;8.076;2023-03-09T13:01:06;7.00;99.90
6690;DHT22;3382;51.576;8.076;2023-03-09T13:03:46;6.60;99.90
6690;DHT22;3382;51.576;8.076;2023-03-09T13:08:51;6.50;99.90
6690;DHT22;3382;51.576;8.076;2023-03-09T13:13:58;6.70;99.90
6690;DHT22;3382;51.576;8.076;2023-03-09T13:29:39;6.50;99.90
6690;DHT22;3382;51.576;8.076;2023-03-09T13:32:39;6.50;99.90
6690;DHT22;3382;51.576;8.076;2023-03-09T13:35:15;6.40;99.90
6690;DHT22;3382;51.576;8.076;2023-03-09T13:37:43;6.40;99.90
6690;DHT22;3382;51.576;8.076;2023-03-09T13:42:43;6.90;99.90
6690;DHT22;3382;51.576;8.076;2023-03-09T13:45:21;6.40;99.90
6690;DHT22;3382;51.576;8.076;2023-03-09T13:47:52;6.40;99.90
6690;DHT22;3382;51.576;8.076;2023-03-09T13:50:20;6.30;99.90
6690;DHT22;3382;51.576;8.076;2023-03-09T13:55:52;6.30;99.90
6690;DHT22;3382;51.576;8.076;2023-03-09T13:58:20;6.40;99.90
6690;DHT22;3382;51.576;8.076;2023-03-09T14:00:59;6.40;99.90
6690;DHT22;3382;51.576;8.076;2023-03-09T14:03:27;6.60;99.90
6690;DHT22;3382;51.576;8.076;2023-03-09T14:06:12;6.90;99.90
6690;DHT22;3382;51.576;8.076;2023-03-09T14:08:46;6.70;99.90
6690;DHT22;3382;51.576;8.076;2023-03-09T14:11:24;6.80;99.90
6690;DHT22;3382;51.576;8.076;2023-03-09T14:14:00;6.70;99.90
6690;DHT22;3382;51.576;8.076;2023-03-09T14:16:31;6.60;99.90
6690;DHT22;3382;51.576;8.076;2023-03-09T14:18:58;6.60;99.90
6690;DHT22;3382;51.576;8.076;2023-03-09T14:21:25;6.60;99.90
6690;DHT22;3382;51.576;8.076;2023-03-09T14:23:52;6.50;99.90
6690;DHT22;3382;51.576;8.076;2023-03-09T14:26:25;6.90;99.90
6690;DHT22;3382;51.576;8.076;2023-03-09T14:29:15;6.40;99.90
6690;DHT22;3382;51.576;8.076;2023-03-09T14:31:44;6.90;99.90
6690;DHT22;3382;51.576;8.076;2023-03-09T14:36:55;6.40;99.90
6690;DHT22;3382;51.576;8.076;2023-03-09T14:39:32;6.40;99.90
6690;DHT22;3382;51.576;8.076;2023-03-09T14:44:35;6.60;99.90
6690;DHT22;3382;51.576;8.076;2023-03-09T14:47:01;6.40;99.90
6690;DHT22;3382;51.576;8.076;2023-03-09T14:49:27;6.40;99.90
6690;DHT22;3382;51.576;8.076;2023-03-09T14:51:53;6.40;99.90
6690;DHT22;3382;51.576;8.076;2023-03-09T14:54:18;6.40;99.90
6690;DHT22;3382;51.576;8.076;2023-03-09T14:56:44;6.40;99.90
6690;DHT22;3382;51.576;8.076;2023-03-09T14:59:14;6.50;99.90
6690;DHT22;3382;51.576;8.076;2023-03-09T15:01:42;8.90;99.90
6690;DHT22;3382;51.576;8.076;2023-03-09T15:04:13;9.60;99.90
6690;DHT22;3382;51.576;8.076;2023-03-09T15:06:39;8.90;99.90
6690;DHT22;3382;51.576;8.076;2023-03-09T15:09:06;7.90;99.90
6690;DHT22;3382;51.576;8.076;2023-03-09T15:11:32;7.50;99.90
6690;DHT22;3382;51.576;8.076;2023-03-09T15:13:58;7.50;99.90
6690;DHT22;3382;51.576;8.076;2023-03-09T15:16:25;7.00;99.90
6690;DHT22;3382;51.576;8.076;2023-03-09T15:18:51;6.90;99.90
6690;DHT22;3382;51.576;8.076;2023-03-09T15:21:17;6.80;99.90
6690;DHT22;3382;51.576;8.076;2023-03-09T15:23:42;7.10;99.90
6690;DHT22;3382;51.576;8.076;2023-03-09T15:26:08;6.70;99.90
6690;DHT22;3382;51.576;8.076;2023-03-09T15:28:34;6.40;99.90
6690;DHT22;3382;51.576;8.076;2023-03-09T15:31:00;6.60;99.90
6690;DHT22;3382;51.576;8.076;2023-03-09T15:33:31;6.50;99.90
6690;DHT22;3382;51.576;8.076;2023-03-09T15:35:57;6.50;99.90
6690;DHT22;3382;51.576;8.076;2023-03-09T15:38:22;6.40;99.90
6690;DHT22;3382;51.576;8.076;2023-03-09T15:40:48;6.50;99.90
6690;DHT22;3382;51.576;8.076;2023-03-09T15:43:14;6.90;99.90
6690;DHT22;3382;51.576;8.076;2023-03-09T15:45:41;6.40;99.90
6690;DHT22;3382;51.576;8.076;2023-03-09T15:48:07;6.50;99.90
6690;DHT22;3382;51.576;8.076;2023-03-09T15:50:34;6.40;99.90
6690;DHT22;3382;51.576;8.076;2023-03-09T15:53:03;6.40;99.90
6690;DHT22;3382;51.576;8.076;2023-03-09T15:55:32;6.40;99.90
6690;DHT22;3382;51.576;8.076;2023-03-09T15:58:01;6.30;99.90
6690;DHT22;3382;51.576;8.076;2023-03-09T16:00:32;6.40;99.90
6690;DHT22;3382;51.576;8.076;2023-03-09T16:03:00;6.70;99.90
6690;DHT22;3382;51.576;8.076;2023-03-09T16:05:29;7.00;99.90
6690;DHT22;3382;51.576;8.076;2023-03-09T16:07:54;6.50;99.90
6690;DHT22;3382;51.576;8.076;2023-03-09T16:10:20;6.30;99.90
6690;DHT22;3382;51.576;8.076;2023-03-09T16:12:47;6.30;99.90
6690;DHT22;3382;51.576;8.076;2023-03-09T16:15:14;6.30;99.90
6690;DHT22;3382;51.576;8.076;2023-03-09T16:17:43;6.20;99.90
6690;DHT22;3382;51.576;8.076;2023-03-09T16:20:10;6.20;99.90
6690;DHT22;3382;51.576;8.076;2023-03-09T16:22:43;6.20;99.90
6690;DHT22;3382;51.576;8.076;2023-03-09T16:25:10;6.20;99.90
6690;DHT22;3382;51.576;8.076;2023-03-09T16:27:35;6.20;99.90
6690;DHT22;3382;51.576;8.076;2023-03-09T16:30:01;6.10;99.90
6690;DHT22;3382;51.576;8.076;2023-03-09T16:32:27;6.10;99.90
6690;DHT22;3382;51.576;8.076;2023-03-09T16:34:52;6.70;99.90
6690;DHT22;3382;51.576;8.076;2023-03-09T16:37:18;6.40;99.90
6690;DHT22;3382;51.576;8.076;2023-03-09T16:39:43;6.50;99.90
6690;DHT22;3382;51.576;8.076;2023-03-09T16:42:09;6.50;99.90
6690;DHT22;3382;51.576;8.076;2023-03-09T16:44:35;6.30;99.90
6690;DHT22;3382;51.576;8.076;2023-03-09T16:47:02;6.30;99.90
6690;DHT22;3382;51.576;8.076;2023-03-09T16:49:30;6.30;99.90
6690;DHT22;3382;51.576;8.076;2023-03-09T16:51:56;6.20;99.90
6690;DHT22;3382;51.576;8.076;2023-03-09T16:54:21;6.10;99.90
6690;DHT22;3382;51.576;8.076;2023-03-09T16:56:47;6.10;99.90
6690;DHT22;3382;51.576;8.076;2023-03-09T16:59:13;6.10;99.90
6690;DHT22;3382;51.576;8.076;2023-03-09T17:01:41;6.00;99.90
6690;DHT22;3382;51.576;8.076;2023-03-09T17:04:07;6.10;99.90
6690;DHT22;3382;51.576;8.076;2023-03-09T17:06:34;6.10;99.90
6690;DHT22;3382;51.576;8.076;2023-03-09T17:08:59;6.10;99.90
6690;DHT22;3382;51.576;8.076;2023-03-09T17:11:25;6.60;99.90
6690;DHT22;3382;51.576;8.076;2023-03-09T17:13:51;6.10;99.90
6690;DHT22;3382;51.576;8.076;2023-03-09T17:16:18;6.10;99.90
6690;DHT22;3382;51.576;8.076;2023-03-09T17:18:44;6.00;99.90
6690;DHT22;3382;51.576;8.076;2023-03-09T17:21:10;5.90;99.90
6690;DHT22;3382;51.576;8.076;2023-03-09T17:23:36;5.90;99.90
6690;DHT22;3382;51.576;8.076;2023-03-09T17:26:04;5.90;99.90
6690;DHT22;3382;51.576;8.076;2023-03-09T17:28:30;5.80;99.90
6690;DHT22;3382;51.576;8.076;2023-03-09T17:30:56;5.80;99.90
6690;DHT22;3382;51.576;8.076;2023-03-09T17:33:23;5.90;99.90
6690;DHT22;3382;51.576;8.076;2023-03-09T17:35:49;5.80;99.90
6690;DHT22;3382;51.576;8.076;2023-03-09T17:38:15;5.80;99.90
6690;DHT22;3382;51.576;8.076;2023-03-09T17:40:42;6.20;99.90
6690;DHT22;3382;51.576;8.076;2023-03-09T17:43:08;5.70;99.90
6690;DHT22;3382;51.576;8.076;2023-03-09T17:45:34;5.80;99.90
6690;DHT22;3382;51.576;8.076;2023-03-09T17:47:59;6.30;99.90
6690;DHT22;3382;51.576;8.076;2023-03-09T17:50:26;5.70;99.90
6690;DHT22;3382;51.576;8.076;2023-03-09T17:52:51;5.70;99.90
6690;DHT22;3382;51.576;8.076;2023-03-09T17:55:17;6.30;99.90
6690;DHT22;3382;51.576;8.076;2023-03-09T17:57:43;5.70;99.90
6690;DHT22;3382;51.576;8.076;2023-03-09T18:00:11;6.20;99.90
6690;DHT22;3382;51.576;8.076;2023-03-09T18:02:37;5.80;99.90